San Francisco, CA (94123)

11:31 AM PDT on July 07, 2015 (GMT -0700)
Pacific Heights | | Change Station
CLOSE
Current Station
Personal Weather Station
Location: San Francisco, CA
Elevation: 220 ft
Nearby Weather Stations

Elev 220 ft 37.79 °N, 122.44 °W | Updated 6 seconds ago

Overcast
Overcast
67.8 °F
Feels Like 67.8 °F
N
7.0
Wind Variable Wind from South
Gusts 12.0 mph

Today
High -- | Low -- °F
--% Chance of Precip.
Yesterday
High -- | Low -- °F
Precip. -- in
5:54 AM 8:34 PM
Waning Gibbous, 62% visible
Pressure 30.03 in
Visibility 10.0 miles
Clouds Few 1600 ft
Mostly Cloudy 2200 ft
Dew Point 58 °F
Humidity 70%
Rainfall 0.00 in
Snow Depth Not available.
UV 5 out of 12
Pollen 3.20 out of 12
Air Quality Not available.
Flu Activity Not available.
METAR KSFO 071756Z 24007KT 10SM FEW016 BKN022 21/13 A3002 RMK AO2 SLP167 T02060133 10206 20172 58005

More Conditions Fewer Conditions

Pressure 30.03 in
Visibility 10.0 miles
Clouds Few 1600 ft
Mostly Cloudy 2200 ft
Dew Point 58 °F
Humidity 70%
Rainfall 0.00 in
Snow Depth Not available.
UV 5 out of 12
Pollen 3.20 out of 12
Air Quality Not available.
Flu Activity Not available.
METAR KSFO 071756Z 24007KT 10SM FEW016 BKN022 21/13 A3002 RMK AO2 SLP167 T02060133 10206 20172 58005

More Conditions Fewer Conditions

10-Day Weather Forecast

×

Almanac

Astronomy

Jul. 07, 2015 Rise Set
Actual Time
Civil Twilight
Nautical Twilight
Astronomical Twilight
Moon
Length of Visible Light
Length of Day
Tomorrow will be .
, % of the Moon is Illuminated

Today's Extremes

State Highs State Lows

Community

WunderPhotos

Upload Photos

1,835,866 photos uploaded!

WunderBlogs® & News

Nearby

Air Quality

  Air Quality AQ Index Pollutant
Not available.

Snow Depth

Station Depth Elevation

Earthquake Activity

City Distance Mag. Time & Date
Minimum magnitude displayed is 2.5.

Coastal Water Temperatures

Place Temperature

Stations

Nearby Weather Stations

Station Location Temp. Windchill Dew Point Humidity Wind Precip. Elev Updated Type